Time;durP1;ratioP1;P1;durP2;ratioP2;P2;SDS_P1;SDS_P2;PMS_P1;PMS_P2;Temp;Humidity;BMP_temperature;BMP_pressure;BME280_temperature;BME280_humidity;BME280_pressure;Samples;Min_cycle;Max_cycle;Signal;HPM_P1;HPM_P2
2019/05/30 09:42:03;;;;;;;2.3;1.5;;;;;;;17.46;56.93457;947.3627;;;;
2019/05/30 09:44:32;;;;;;;8;3;;;;;;;;;;;;;
2019/05/30 09:47:04;;;;;;;9;3.3;;;;;;;;;;;;;
2019/05/30 09:49:34;;;;;;;5;2.6;;;;;;;;;;;;;
2019/05/30 09:52:00;;;;;;;2.4;1.7;;;;;;;;;;;;;
2019/05/30 09:54:24;;;;;;;2.4;1.8;;;;;;;;;;;;;
2019/05/30 09:57:47;;;;;;;2.5;1.7;;;;;;;16.91;57.03613;947.3569;;;;
2019/05/30 10:00:20;;;;;;;3.6;1.7;;;;;;;16.53;57.70508;947.3824;;;;
2019/05/30 10:02:59;;;;;;;3.1;2;;;;;;;16.4;61.66992;947.3571;;;;
2019/05/30 10:05:27;;;;;;;2.5;1.8;;;;;;;16.52;57.85449;947.3704;;;;
2019/05/30 10:07:55;;;;;;;2.6;1.8;;;;;;;16.41;55.70117;947.3514;;;;
2019/05/30 10:10:24;;;;;;;3.5;1.9;;;;;;;16.67;55.13086;947.3301;;;;
2019/05/30 10:12:56;;;;;;;2.5;1.8;;;;;;;16.89;54.76367;947.3497;;;;
2019/05/30 10:15:34;;;;;;;2.6;2;;;;;;;16.62;55.81836;947.296;;;;
2019/05/30 10:18:05;;;;;;;2.2;1.9;;;;;;;16.61;57.82031;947.3954;;;;
2019/05/30 10:20:33;;;;;;;2.5;2.1;;;;;;;17.09;55.28809;947.3201;;;;
2019/05/30 10:23:06;;;;;;;3.9;2.5;;;;;;;17.21;55.07031;947.3465;;;;
2019/05/30 10:25:36;;;;;;;2.7;2.4;;;;;;;16.68;55.74414;947.3591;;;;
2019/05/30 10:28:07;;;;;;;2.5;2.3;;;;;;;16.31;60.36133;947.3882;;;;
2019/05/30 10:30:41;;;;;;;2.9;2.2;;;;;;;16.39;60.09375;947.423;;;;
2019/05/30 10:33:16;;;;;;;3.5;2;;;;;;;16.4;58.91602;947.3997;;;;
2019/05/30 10:35:39;;;;;;;2.4;1.8;;;;;;;16.3;61.07617;947.4196;;;;
2019/05/30 10:38:13;;;;;;;4.1;2.1;;;;;;;16.22;63.06641;947.4274;;;;
2019/05/30 10:40:44;;;;;;;3.1;1.8;;;;;;;15.94;60.74805;947.434;;;;
2019/05/30 10:43:10;;;;;;;3.2;1.8;;;;;;;15.97;61.21582;947.4478;;;;
2019/05/30 10:45:50;;;;;;;3;1.7;;;;;;;15.93;60.66699;947.418;;;;
2019/05/30 10:48:15;;;;;;;2;1.8;;;;;;;16.02;59.59277;947.4603;;;;
2019/05/30 10:51:08;;;;;;;2.8;1.8;;;;;;;15.96;61.63086;947.4365;;;;
2019/05/30 10:53:28;;;;;;;4;1.9;;;;;;;15.57;61.35645;947.4404;;;;
2019/05/30 10:56:00;;;;;;;3.2;1.9;;;;;;;15.7;64.29883;947.4576;;;;
2019/05/30 10:58:27;;;;;;;4.1;2;;;;;;;15.61;63.59082;947.4497;;;;
2019/05/30 11:01:00;;;;;;;2.6;1.9;;;;;;;15.81;64.63672;947.4726;;;;
2019/05/30 11:03:23;;;;;;;2.6;1.6;;;;;;;15.55;64.3916;947.4426;;;;
2019/05/30 11:05:51;;;;;;;2.5;1.3;;;;;;;15.99;60.83691;947.4205;;;;
2019/05/30 11:08:25;;;;;;;2.8;1.3;;;;;;;16.01;60.57324;947.4744;;;;
2019/05/30 11:11:01;;;;;;;3;1.6;;;;;;;16.24;61.10352;947.4122;;;;
2019/05/30 11:13:21;;;;;;;1.5;1.2;;;;;;;16.29;60.77441;947.3858;;;;
2019/05/30 11:15:58;;;;;;;1.5;1.2;;;;;;;16.73;56.3418;947.3276;;;;
2019/05/30 11:18:42;;;;;;;3.6;1.2;;;;;;;16.84;55.22168;947.3979;;;;
2019/05/30 11:21:08;;;;;;;2.4;1.2;;;;;;;16.82;58.77441;947.3747;;;;
2019/05/30 11:23:45;;;;;;;2.3;1.2;;;;;;;16.81;55.91309;947.3535;;;;
2019/05/30 11:26:11;;;;;;;2.6;1.2;;;;;;;17.23;57.99512;947.3572;;;;
2019/05/30 11:28:38;;;;;;;2;1.2;;;;;;;17.35;53.20898;947.3272;;;;
2019/05/30 11:31:18;;;;;;;2.6;1;;;;;;;17.69;53.36621;947.3046;;;;
2019/05/30 11:33:48;;;;;;;3.9;1.2;;;;;;;17.77;52.42383;947.2866;;;;
2019/05/30 11:36:23;;;;;;;2.2;1.2;;;;;;;17.86;52.58691;947.2986;;;;
2019/05/30 11:38:54;;;;;;;1.6;1.2;;;;;;;17.99;53.48438;947.2198;;;;
2019/05/30 11:41:20;;;;;;;1.6;1.2;;;;;;;17.81;55.81934;947.2606;;;;
2019/05/30 11:43:58;;;;;;;4.9;1.6;;;;;;;17.78;54.07422;947.2551;;;;
2019/05/30 11:46:23;;;;;;;2.5;1.4;;;;;;;18.12;53.09473;947.2058;;;;
2019/05/30 11:48:57;;;;;;;3.6;1.3;;;;;;;17.16;54.9707;947.2701;;;;
2019/05/30 11:51:16;;;;;;;3.4;1.4;;;;;;;17;53.71191;947.2434;;;;
2019/05/30 11:54:00;;;;;;;2.9;1.3;;;;;;;16.8;55.5752;947.2737;;;;
2019/05/30 11:56:25;;;;;;;2.1;1.1;;;;;;;16.68;53.5918;947.2126;;;;
2019/05/30 11:59:17;;;;;;;2.8;1.2;;;;;;;16.95;54.09961;947.2145;;;;
2019/05/30 12:01:54;;;;;;;2.5;1.2;;;;;;;17.11;54.08398;947.2541;;;;
2019/05/30 12:04:26;;;;;;;2.4;1.2;;;;;;;17.32;53.72656;947.2492;;;;
2019/05/30 12:06:58;;;;;;;3;1.2;;;;;;;17.58;52.7041;947.2592;;;;
2019/05/30 12:10:03;;;;;;;2.1;1.2;;;;;;;17.36;54.3125;947.1887;;;;
2019/05/30 12:12:34;;;;;;;2.7;1.2;;;;;;;17.82;50.13184;947.1997;;;;
2019/05/30 12:15:08;;;;;;;2;1.2;;;;;;;17.45;50.11328;947.2217;;;;
2019/05/30 12:17:42;;;;;;;4.3;1.3;;;;;;;17.66;51.69238;947.2166;;;;
2019/05/30 12:20:10;;;;;;;1.6;1;;;;;;;17.54;50.4707;947.1354;;;;
2019/05/30 12:22:36;;;;;;;3.6;1.1;;;;;;;17.79;50.29102;947.1174;;;;
2019/05/30 12:25:10;;;;;;;1.9;0.9;;;;;;;18.16;52.54102;947.1411;;;;
2019/05/30 12:28:01;;;;;;;1.7;0.9;;;;;;;18.12;51.41992;947.1373;;;;
2019/05/30 12:30:20;;;;;;;1.6;0.9;;;;;;;17.96;47.90625;947.1459;;;;
2019/05/30 12:32:45;;;;;;;2.5;1;;;;;;;18.14;50.96973;947.1525;;;;
2019/05/30 12:35:20;;;;;;;1;0.6;;;;;;;18.26;45.75391;947.1473;;;;
2019/05/30 12:37:51;;;;;;;1.6;0.6;;;;;;;18.23;45.12305;947.1337;;;;
2019/05/30 12:40:21;;;;;;;1.6;0.6;;;;;;;17.99;45.58691;947.2198;;;;
2019/05/30 12:43:16;;;;;;;3.2;0.8;;;;;;;17.92;45.21875;947.163;;;;
2019/05/30 12:45:41;;;;;;;1;0.7;;;;;;;18.24;47.40234;947.1579;;;;
2019/05/30 12:48:32;;;;;;;1.3;0.6;;;;;;;17.67;45.69238;947.1038;;;;
2019/05/30 12:51:10;;;;;;;2.3;0.7;;;;;;;18.54;49.24805;947.1555;;;;
2019/05/30 12:53:41;;;;;;;2.2;0.7;;;;;;;18.28;45.4541;947.098;;;;
2019/05/30 12:56:09;;;;;;;1.4;0.7;;;;;;;17.58;44.80176;947.0362;;;;
2019/05/30 12:58:48;;;;;;;1.1;0.7;;;;;;;17.81;47.45996;947.0117;;;;
2019/05/30 13:01:39;;;;;;;1;0.7;;;;;;;18.07;46.43164;946.94;;;;
2019/05/30 13:04:49;;;;;;;1.6;0.7;;;;;;;18.26;45.38184;946.9458;;;;
2019/05/30 13:07:13;;;;;;;1;0.6;;;;;;;18.39;44.29102;946.8706;;;;
2019/05/30 13:09:49;;;;;;;1.7;0.6;;;;;;;18.3;42.93359;946.8898;;;;
2019/05/30 13:12:19;;;;;;;1.3;0.7;;;;;;;17.84;44.37598;946.8708;;;;
2019/05/30 13:14:57;;;;;;;1.2;0.8;;;;;;;17.96;46.01367;946.8275;;;;
2019/05/30 13:17:35;;;;;;;1;0.6;;;;;;;17.93;43.4668;946.7664;;;;
2019/05/30 13:20:03;;;;;;;2.4;1;;;;;;;18.21;48.07129;946.8264;;;;
2019/05/30 13:22:44;;;;;;;1.8;0.9;;;;;;;18.33;45.76074;946.8558;;;;
2019/05/30 13:25:10;;;;;;;2.2;0.7;;;;;;;18.54;45.27051;946.8239;;;;
2019/05/30 13:27:48;;;;;;;2.9;0.8;;;;;;;18.76;45.3291;946.856;;;;
2019/05/30 13:30:18;;;;;;;0.9;0.7;;;;;;;18.64;48.63086;946.8351;;;;
2019/05/30 13:32:54;;;;;;;1.6;0.7;;;;;;;17.54;46.76953;946.7915;;;;
2019/05/30 13:35:30;;;;;;;1.4;0.7;;;;;;;17.47;45.7998;946.8287;;;;
2019/05/30 13:38:03;;;;;;;2.3;0.7;;;;;;;17.95;47.59082;946.7946;;;;
2019/05/30 13:40:28;;;;;;;1.5;0.7;;;;;;;17.64;47.15137;946.7164;;;;
2019/05/30 13:42:59;;;;;;;1.4;0.7;;;;;;;18.21;47.46875;946.7441;;;;
2019/05/30 13:45:31;;;;;;;1.3;0.7;;;;;;;18.09;48.53613;946.7231;;;;
2019/05/30 13:48:05;;;;;;;1.8;0.8;;;;;;;18.64;48.88672;946.7488;;;;
2019/05/30 13:50:34;;;;;;;1.3;0.6;;;;;;;18.35;44.19434;946.7241;;;;
2019/05/30 13:53:17;;;;;;;2.6;0.8;;;;;;;18.62;44.96484;946.7378;;;;
2019/05/30 13:55:45;;;;;;;2.2;0.7;;;;;;;19;43.75781;946.7766;;;;
2019/05/30 13:58:12;;;;;;;1.7;0.7;;;;;;;19.59;46.23047;946.7999;;;;
2019/05/30 14:00:42;;;;;;;1.2;0.6;;;;;;;20.01;43.13477;946.6602;;;;
2019/05/30 14:03:08;;;;;;;2.5;1.1;;;;;;;19.56;43.80176;946.7;;;;
2019/05/30 14:05:34;;;;;;;1.7;0.5;;;;;;;18.47;41.5791;946.7195;;;;
2019/05/30 14:08:03;;;;;;;0.8;0.5;;;;;;;19.02;41.35059;946.6238;;;;
2019/05/30 14:10:33;;;;;;;0.9;0.6;;;;;;;19.5;41.82715;946.6502;;;;
2019/05/30 14:13:08;;;;;;;1.9;0.6;;;;;;;19.28;41.93359;946.65;;;;
2019/05/30 14:15:36;;;;;;;1.9;0.6;;;;;;;18.86;41.14941;946.6253;;;;
2019/05/30 14:18:08;;;;;;;0.9;0.7;;;;;;;19;41.1748;946.6255;;;;
2019/05/30 14:20:51;;;;;;;1.5;0.7;;;;;;;19.66;41.22461;946.5544;;;;
2019/05/30 14:23:22;;;;;;;4;0.7;;;;;;;20.46;40.06152;946.5416;;;;
2019/05/30 14:25:53;;;;;;;2.2;0.7;;;;;;;20.08;40.14355;946.6085;;;;
2019/05/30 14:28:38;;;;;;;2.3;0.8;;;;;;;20.31;40.74805;946.5893;;;;
2019/05/30 14:31:11;;;;;;;1;0.7;;;;;;;19.87;39.55273;946.603;;;;
2019/05/30 14:33:42;;;;;;;2.5;0.8;;;;;;;19.68;42.75391;946.6044;;;;
2019/05/30 14:36:18;;;;;;;1.2;0.7;;;;;;;19.48;41.66113;946.6102;;;;
2019/05/30 14:38:51;;;;;;;1.8;0.7;;;;;;;19.6;39.83105;946.5435;;;;
2019/05/30 14:41:22;;;;;;;2;0.8;;;;;;;19.48;40.69531;946.5963;;;;
2019/05/30 14:44:00;;;;;;;1.3;0.6;;;;;;;19.41;39.25488;946.6259;;;;
2019/05/30 14:46:38;;;;;;;1.6;0.6;;;;;;;19.45;41.40234;946.5701;;;;
2019/05/30 14:49:13;;;;;;;2.7;0.8;;;;;;;19.47;42.0918;946.5553;;;;
2019/05/30 14:51:38;;;;;;;2.2;0.8;;;;;;;19.19;42.90332;946.6305;;;;
2019/05/30 14:54:05;;;;;;;1.1;0.6;;;;;;;18.92;44.08887;946.6174;;;;
2019/05/30 14:56:31;;;;;;;0.8;0.6;;;;;;;18.97;43.79004;946.6469;;;;
2019/05/30 14:59:06;;;;;;;2.2;0.7;;;;;;;19.2;44.84961;946.6764;;;;
2019/05/30 15:01:58;;;;;;;2.2;0.7;;;;;;;19.18;47.06055;946.6572;;;;
2019/05/30 15:04:39;;;;;;;1.6;0.7;;;;;;;19.21;42.05566;946.6359;;;;
2019/05/30 15:07:05;;;;;;;1.1;0.6;;;;;;;19.5;43.67969;946.6414;;;;
2019/05/30 15:09:38;;;;;;;1.4;0.7;;;;;;;18.9;45.99414;946.6121;;;;
2019/05/30 15:12:21;;;;;;;0.9;0.6;;;;;;;19.16;42.92383;946.5904;;;;
2019/05/30 15:14:53;;;;;;;1.3;0.8;;;;;;;19.42;44.35938;946.6469;;;;
2019/05/30 15:17:35;;;;;;;1.6;0.7;;;;;;;19.26;41.87402;946.5751;;;;
2019/05/30 15:20:14;;;;;;;1.7;0.8;;;;;;;18.8;49.40625;946.5795;;;;
2019/05/30 15:22:56;;;;;;;1.9;0.8;;;;;;;18.92;45.53125;946.6094;;;;
2019/05/30 15:25:26;;;;;;;2.3;0.8;;;;;;;18.61;49.1748;946.5709;;;;
2019/05/30 15:28:05;;;;;;;2.8;0.9;;;;;;;18.4;49.2334;946.5592;;;;
2019/05/30 15:30:41;;;;;;;1.8;0.9;;;;;;;18.41;48.22266;946.5673;;;;
2019/05/30 15:33:22;;;;;;;2.9;0.9;;;;;;;18.46;52.09863;946.5535;;;;
2019/05/30 15:35:53;;;;;;;1.4;0.8;;;;;;;18.48;52.0791;946.5936;;;;
2019/05/30 15:38:26;;;;;;;1.1;0.7;;;;;;;18.66;46.43555;946.454;;;;
2019/05/30 15:41:09;;;;;;;3.1;1;;;;;;;18.99;46.62207;946.5489;;;;
2019/05/30 15:43:45;;;;;;;1.3;0.7;;;;;;;18.86;49.84277;946.5648;;;;
2019/05/30 15:46:14;;;;;;;3.2;0.8;;;;;;;18.72;52.12988;946.5375;;;;
2019/05/30 15:48:42;;;;;;;1.4;0.7;;;;;;;19.07;48.57422;946.45;;;;
2019/05/30 15:51:15;;;;;;;1.4;0.8;;;;;;;19.16;49.48047;946.4612;;;;
2019/05/30 15:54:07;;;;;;;1.5;0.8;;;;;;;19.31;47.42383;946.5261;;;;
2019/05/30 15:56:35;;;;;;;1.2;0.7;;;;;;;19.52;44.99902;946.5103;;;;
2019/05/30 15:59:14;;;;;;;2;0.8;;;;;;;19.1;49.28711;946.5676;;;;
2019/05/30 16:01:58;;;;;;;2.6;0.8;;;;;;;18.89;49.58984;946.587;;;;
2019/05/30 16:04:30;;;;;;;1.7;0.6;;;;;;;19.12;46.40234;946.5044;;;;
2019/05/30 16:07:12;;;;;;;1.8;0.8;;;;;;;18.97;49.31934;946.6161;;;;
2019/05/30 16:09:44;;;;;;;2.5;0.9;;;;;;;18.91;49.68555;946.5627;;;;
2019/05/30 16:12:16;;;;;;;2.5;1;;;;;;;18.73;51.73633;946.5616;;;;
2019/05/30 16:14:36;;;;;;;4.2;0.8;;;;;;;18.61;52.74512;946.5709;;;;
2019/05/30 16:17:03;;;;;;;2;1.1;;;;;;;18.17;56.46973;946.6114;;;;
2019/05/30 16:19:36;;;;;;;2.2;0.9;;;;;;;17.88;57.33691;946.4718;;;;
2019/05/30 16:22:29;;;;;;;5.6;0.8;;;;;;;18.27;51.75195;946.5401;;;;
2019/05/30 16:24:53;;;;;;;2.1;1;;;;;;;18.54;49.83008;946.544;;;;
2019/05/30 16:27:27;;;;;;;3.8;1.7;;;;;;;18.64;49.16602;946.6156;;;;
2019/05/30 16:29:57;;;;;;;6.9;4.3;;;;;;;18.69;49.47461;946.5668;;;;
2019/05/30 16:32:41;;;;;;;10.7;5.9;;;;;;;18.72;50.57227;946.5714;;;;
2019/05/30 16:35:08;;;;;;;7.8;4.6;;;;;;;18.62;53.32813;946.557;;;;
2019/05/30 16:37:36;;;;;;;6.3;4;;;;;;;18.48;54.42773;946.5936;;;;
2019/05/30 16:39:57;;;;;;;6.6;4.7;;;;;;;18.52;53.43164;946.5555;;;;
2019/05/30 16:42:22;;;;;;;10.6;6.4;;;;;;;18.31;53.89453;946.514;;;;
2019/05/30 16:45:03;;;;;;;10.9;8;;;;;;;18.34;54.9209;946.5581;;;;
2019/05/30 16:47:38;;;;;;;3.1;2.7;;;;;;;18.19;56.58789;946.5016;;;;
2019/05/30 16:50:04;;;;;;;3.4;2.4;;;;;;;17.87;57.83496;946.5411;;;;
2019/05/30 16:52:31;;;;;;;2;1.1;;;;;;;17.95;58.84473;946.502;;;;
2019/05/30 16:55:03;;;;;;;2.7;1.2;;;;;;;17.83;58.93359;946.5631;;;;
2019/05/30 16:57:40;;;;;;;3.5;1.4;;;;;;;17.81;57.25879;946.5306;;;;
2019/05/30 17:00:21;;;;;;;2.4;1.3;;;;;;;18.05;56.83789;946.5854;;;;
2019/05/30 17:02:54;;;;;;;3;1.7;;;;;;;18.13;59.42676;946.6117;;;;
2019/05/30 17:05:24;;;;;;;3.1;1.1;;;;;;;17.92;61.58105;946.6125;;;;
2019/05/30 17:07:50;;;;;;;2.3;1;;;;;;;17.78;61.41016;946.6114;;;;
2019/05/30 17:10:25;;;;;;;18.1;16.2;;;;;;;17.66;59.33984;946.6286;;;;
2019/05/30 17:12:53;;;;;;;20.5;17;;;;;;;17.78;60.20313;946.6243;;;;
2019/05/30 17:15:39;;;;;;;19.7;15.8;;;;;;;17.79;59.0791;946.6395;;;;
2019/05/30 17:18:03;;;;;;;11;6.5;;;;;;;17.9;59.97559;946.6627;;;;
2019/05/30 17:20:33;;;;;;;4.1;2.3;;;;;;;17.69;58.04492;946.6683;;;;
2019/05/30 17:23:06;;;;;;;3.4;2;;;;;;;17.55;58.7793;946.6747;;;;
2019/05/30 17:25:29;;;;;;;3.1;2.1;;;;;;;17.24;60.91797;946.6561;;;;
2019/05/30 17:28:03;;;;;;;2.2;1.7;;;;;;;17.34;61.41895;946.774;;;;
2019/05/30 17:30:33;;;;;;;1.8;1.3;;;;;;;17.31;61.4375;946.8031;;;;
2019/05/30 17:33:08;;;;;;;4.3;1.2;;;;;;;17.27;61.09766;946.7944;;;;
2019/05/30 17:35:56;;;;;;;3.9;1.6;;;;;;;17;64.01367;946.866;;;;
2019/05/30 17:38:43;;;;;;;3.3;1.5;;;;;;;17.03;63.68164;946.9363;;;;
2019/05/30 17:41:18;;;;;;;3.1;1.6;;;;;;;17.04;63.2998;946.884;;;;
2019/05/30 17:43:49;;;;;;;3;1.7;;;;;;;17.01;63.52832;946.8483;;;;
2019/05/30 17:46:20;;;;;;;1.9;1.5;;;;;;;17.04;63.93848;946.8792;;;;
2019/05/30 17:48:43;;;;;;;2.5;1.3;;;;;;;16.95;64.37793;946.9055;;;;
2019/05/30 17:51:33;;;;;;;3.2;1.2;;;;;;;16.84;63.15723;946.9;;;;
2019/05/30 17:54:09;;;;;;;20.7;13.7;;;;;;;16.83;62.94727;946.9354;;;;
2019/05/30 17:56:35;;;;;;;9.7;4.8;;;;;;;16.7;64.21289;946.9408;;;;
2019/05/30 17:59:16;;;;;;;4.4;1.9;;;;;;;16.51;62.8418;946.9949;;;;
2019/05/30 18:02:20;;;;;;;7.5;2;;;;;;;16.46;64.58301;946.957;;;;
2019/05/30 18:04:41;;;;;;;3.1;1.9;;;;;;;16.39;64.22461;947.0242;;;;
2019/05/30 18:07:06;;;;;;;5.9;3.6;;;;;;;16.29;65.07813;947.0345;;;;
2019/05/30 18:09:36;;;;;;;11.4;7.7;;;;;;;16.18;65.90723;947.0622;;;;
2019/05/30 18:12:04;;;;;;;6.2;4.3;;;;;;;15.81;65.61914;947.0959;;;;
2019/05/30 18:14:45;;;;;;;4.9;2.6;;;;;;;15.68;66.60547;947.1051;;;;
2019/05/30 18:17:33;;;;;;;9.3;4.7;;;;;;;15.61;67.3457;947.09;;;;
2019/05/30 18:20:08;;;;;;;9;5.2;;;;;;;15.54;66.97656;947.1183;;;;
2019/05/30 18:22:36;;;;;;;7.5;4.6;;;;;;;15.39;67.27734;947.1542;;;;
2019/05/30 18:25:19;;;;;;;4.7;2.5;;;;;;;15.36;68.12793;947.1525;;;;
2019/05/30 18:27:41;;;;;;;6.4;2.6;;;;;;;15.41;68.51465;947.0884;;;;
2019/05/30 18:30:11;;;;;;;4.3;2.5;;;;;;;15.42;68.41309;947.1303;;;;
2019/05/30 18:32:56;;;;;;;3.6;2.2;;;;;;;15.39;68.75488;947.0941;;;;
2019/05/30 18:35:20;;;;;;;2.5;1.4;;;;;;;15.4;66.4248;947.0676;;;;
2019/05/30 18:38:04;;;;;;;4;2.2;;;;;;;15.15;67.95703;947.1518;;;;
2019/05/30 18:40:33;;;;;;;4.1;2;;;;;;;15.14;67.81543;947.1919;;;;
2019/05/30 18:43:23;;;;;;;6;2.4;;;;;;;15.06;68.36816;947.2042;;;;
2019/05/30 18:45:51;;;;;;;3.6;2;;;;;;;15.15;66.7666;947.2938;;;;
2019/05/30 18:48:14;;;;;;;2.8;2.1;;;;;;;15.2;67.36328;947.2411;;;;
2019/05/30 18:50:51;;;;;;;5;2.4;;;;;;;15.09;67.72754;947.2092;;;;
2019/05/30 18:53:19;;;;;;;3.5;2.2;;;;;;;14.9;68.05469;947.2452;;;;
2019/05/30 18:55:50;;;;;;;5.7;2.8;;;;;;;14.66;68.61719;947.2342;;;;
2019/05/30 18:58:36;;;;;;;5.9;2.5;;;;;;;14.49;69.16504;947.2462;;;;
2019/05/30 19:01:11;;;;;;;3.4;1.9;;;;;;;14.22;70.05664;947.3352;;;;
2019/05/30 19:03:43;;;;;;;3.2;1.8;;;;;;;13.97;70.94922;947.3536;;;;
2019/05/30 19:06:14;;;;;;;4.4;1.8;;;;;;;14.03;71.49902;947.3914;;;;
2019/05/30 19:09:03;;;;;;;6.6;2.9;;;;;;;13.94;71.92188;947.3781;;;;
2019/05/30 19:11:30;;;;;;;3.7;2.4;;;;;;;13.74;73.11914;947.4692;;;;
2019/05/30 19:14:04;;;;;;;4.1;2;;;;;;;13.78;72.45801;947.4441;;;;
2019/05/30 19:16:35;;;;;;;3.8;2.1;;;;;;;13.79;72.48242;947.5201;;;;
2019/05/30 19:19:06;;;;;;;4.8;2.4;;;;;;;13.67;73.17676;947.5612;;;;
2019/05/30 19:21:30;;;;;;;5.6;3.1;;;;;;;13.69;73.00879;947.5287;;;;
2019/05/30 19:24:04;;;;;;;7.2;3.8;;;;;;;13.76;72.21387;947.5999;;;;
2019/05/30 19:26:32;;;;;;;5.6;3.7;;;;;;;13.68;71.95996;947.6365;;;;
2019/05/30 19:29:00;;;;;;;8.9;4.3;;;;;;;13.72;71.28809;947.7099;;;;
2019/05/30 19:31:30;;;;;;;6.1;3.9;;;;;;;13.67;71.52148;947.7014;;;;
2019/05/30 19:34:05;;;;;;;7;2.9;;;;;;;13.43;72.79199;947.7531;;;;
2019/05/30 19:36:38;;;;;;;4;2.3;;;;;;;13.43;73.44727;947.8475;;;;
2019/05/30 19:39:12;;;;;;;2.7;2.3;;;;;;;13.49;73.39844;947.8331;;;;
2019/05/30 19:41:43;;;;;;;5.5;2.2;;;;;;;13.32;73.86426;947.9256;;;;
2019/05/30 19:44:28;;;;;;;4.3;2.2;;;;;;;13.27;73.91211;947.9216;;;;
2019/05/30 19:47:00;;;;;;;8.7;2.6;;;;;;;13.15;74.3877;947.9354;;;;
2019/05/30 19:49:38;;;;;;;6.1;2.9;;;;;;;13.07;74.83301;947.9645;;;;
2019/05/30 19:52:12;;;;;;;5.1;3;;;;;;;13.14;74.52246;948.1031;;;;
2019/05/30 19:54:46;;;;;;;4.9;2.7;;;;;;;12.95;74.50293;948.0807;;;;
2019/05/30 19:57:14;;;;;;;6.1;2.8;;;;;;;12.89;74.44824;948.1245;;;;
2019/05/30 19:59:45;;;;;;;3.4;2.1;;;;;;;12.74;74.75488;948.0906;;;;
2019/05/30 20:02:19;;;;;;;5.6;3;;;;;;;12.85;74.20898;948.0989;;;;
2019/05/30 20:04:52;;;;;;;6;3.5;;;;;;;12.83;74.24023;948.0747;;;;
2019/05/30 20:07:18;;;;;;;6.8;3.4;;;;;;;12.85;73.92188;948.1501;;;;
2019/05/30 20:13:38;;;;;;;7.1;2.7;;;;;;;12.58;74.66797;948.1984;;;;
2019/05/30 20:16:24;;;;;;;5;2.6;;;;;;;11.89;75.93555;948.2438;;;;
2019/05/30 20:18:53;;;;;;;7.1;3.3;;;;;;;11.96;76.36035;948.285;;;;
2019/05/30 20:21:20;;;;;;;6.3;3.2;;;;;;;12.15;75.56836;948.2946;;;;
2019/05/30 20:24:02;;;;;;;5.7;3.8;;;;;;;12.25;75.73535;948.2776;;;;
2019/05/30 20:26:46;;;;;;;4.2;2.6;;;;;;;12.02;77.11523;948.3439;;;;
2019/05/30 20:29:35;;;;;;;6.9;3.1;;;;;;;12.14;76.59863;948.3591;;;;
2019/05/30 20:32:11;;;;;;;4;3.2;;;;;;;12.17;75.34277;948.3613;;;;
2019/05/30 20:34:44;;;;;;;4.8;2.7;;;;;;;12.14;75.09766;948.4021;;;;
2019/05/30 20:37:18;;;;;;;10.2;7.6;;;;;;;12.12;75.07129;948.3524;;;;
2019/05/30 20:39:50;;;;;;;7.2;5;;;;;;;12.16;75.00879;948.3276;;;;
2019/05/30 20:42:40;;;;;;;6.9;3.1;;;;;;;12.24;74.58691;948.3806;;;;
2019/05/30 20:45:26;;;;;;;3.3;2.7;;;;;;;12.23;74.7002;948.3691;;;;
2019/05/30 20:48:19;;;;;;;4.9;2.7;;;;;;;12.21;75.25879;948.4343;;;;
2019/05/30 20:50:43;;;;;;;7;2.7;;;;;;;11.84;75.60645;948.431;;;;
2019/05/30 20:53:24;;;;;;;5.1;2.6;;;;;;;11.82;75.61523;948.39;;;;
2019/05/30 20:55:59;;;;;;;4.1;2.2;;;;;;;11.71;75.51465;948.45;;;;
2019/05/30 20:58:41;;;;;;;4.6;2.1;;;;;;;11.69;75.56836;948.507;;;;
2019/05/30 21:01:09;;;;;;;3.5;1.8;;;;;;;11.6;75.67871;948.5056;;;;
2019/05/30 21:03:42;;;;;;;4.3;2.4;;;;;;;11.71;76.52246;948.5481;;;;
2019/05/30 21:06:11;;;;;;;4.7;2.5;;;;;;;11.88;75.15527;948.53;;;;
2019/05/30 21:08:34;;;;;;;5.1;2.3;;;;;;;11.6;75.77051;948.5096;;;;
2019/05/30 21:11:08;;;;;;;3.3;2.2;;;;;;;11.3;76.72461;948.4706;;;;
2019/05/30 21:13:48;;;;;;;4.3;2.5;;;;;;;11.08;77.86426;948.4749;;;;
2019/05/30 21:16:10;;;;;;;3.7;2.6;;;;;;;10.98;78.65625;948.5469;;;;
2019/05/30 21:18:37;;;;;;;4.7;2.5;;;;;;;11.28;77.68066;948.5403;;;;
2019/05/30 21:21:04;;;;;;;3.2;2.1;;;;;;;11.12;77.31055;948.5524;;;;
2019/05/30 21:23:50;;;;;;;4.6;2.4;;;;;;;11.29;77.2041;948.5135;;;;
2019/05/30 21:26:35;;;;;;;3.2;2.5;;;;;;;11.58;76.83203;948.5753;;;;
2019/05/30 21:29:10;;;;;;;6.1;2.3;;;;;;;11.45;76.28125;948.5564;;;;
2019/05/30 21:31:37;;;;;;;5.4;2.8;;;;;;;11.22;77.01953;948.5789;;;;
2019/05/30 21:34:05;;;;;;;7.9;3.1;;;;;;;11.28;76.86914;948.5658;;;;
2019/05/30 21:36:37;;;;;;;7.2;3;;;;;;;11.51;76.39355;948.5729;;;;
2019/05/30 21:39:06;;;;;;;5.2;3.5;;;;;;;11.48;76.19629;948.5708;;;;
2019/05/30 21:41:48;;;;;;;6.3;3.6;;;;;;;11.61;76.40137;948.5772;;;;
2019/05/30 21:44:17;;;;;;;6.6;2.7;;;;;;;11.36;76.88477;948.5247;;;;
2019/05/30 21:46:56;;;;;;;6.7;2.7;;;;;;;11.27;76.75488;948.5195;;;;
2019/05/30 21:49:25;;;;;;;5;2.3;;;;;;;11.1;77.47656;948.5461;;;;
2019/05/30 21:51:52;;;;;;;4.9;2.6;;;;;;;11.36;76.91895;948.5502;;;;
2019/05/30 21:54:26;;;;;;;5.7;2.7;;;;;;;11.53;76.63867;948.6133;;;;
2019/05/30 21:56:52;;;;;;;4.4;2.6;;;;;;;11.53;76.31836;948.618;;;;
2019/05/30 21:59:49;;;;;;;3.3;2.4;;;;;;;11.64;75.60645;948.5706;;;;
2019/05/30 22:02:22;;;;;;;5;2.6;;;;;;;11.28;76.78906;948.5913;;;;
2019/05/30 22:04:46;;;;;;;6.7;2.7;;;;;;;11.37;77.05762;948.5496;;;;
2019/05/30 22:07:13;;;;;;;4.2;2.4;;;;;;;11.4;76.81152;948.5894;;;;
2019/05/30 22:09:42;;;;;;;3.5;2.4;;;;;;;11.41;76.42383;948.568;;;;
2019/05/30 22:12:09;;;;;;;2.5;2.2;;;;;;;11.09;76.7334;948.5762;;;;
2019/05/30 22:14:33;;;;;;;5.3;2.7;;;;;;;11.21;76.73145;948.5369;;;;
2019/05/30 22:17:01;;;;;;;4.3;2.5;;;;;;;11.22;76.87012;948.5829;;;;
2019/05/30 22:19:31;;;;;;;5.2;2.3;;;;;;;11.04;77.41016;948.5551;;;;
2019/05/30 22:22:00;;;;;;;3.7;2.3;;;;;;;11.21;77.16602;948.5623;;;;
2019/05/30 22:24:42;;;;;;;3.2;2.6;;;;;;;11.24;76.59961;948.5817;;;;
2019/05/30 22:27:25;;;;;;;4.3;2.8;;;;;;;11.29;77.1582;948.6075;;;;
2019/05/30 22:30:05;;;;;;;5.9;3.1;;;;;;;11.27;76.9375;948.5751;;;;
2019/05/30 22:32:50;;;;;;;3.2;2.6;;;;;;;11.18;76.99023;948.5648;;;;
2019/05/30 22:35:23;;;;;;;2.7;2.2;;;;;;;11.25;76.7041;948.5508;;;;
2019/05/30 22:37:48;;;;;;;4.1;2.5;;;;;;;11.27;76.22852;948.6;;;;
2019/05/30 22:40:32;;;;;;;3.4;2.3;;;;;;;11.37;76.12012;948.6135;;;;
2019/05/30 22:43:07;;;;;;;3.8;2.4;;;;;;;11.25;76.37207;948.5764;;;;
2019/05/30 22:45:45;;;;;;;4;2.5;;;;;;;11.21;76.36621;948.6094;;;;
2019/05/30 22:53:55;;;;;;;3.6;2.6;;;;;;;11.13;76.43164;948.688;;;;
2019/05/30 22:59:44;;;;;;;4.5;2.4;;;;;;;11.13;76.14551;948.6283;;;;
2019/05/30 23:02:14;;;;;;;2.5;2;;;;;;;11.05;75.81152;948.5585;;;;
2019/05/30 23:04:50;;;;;;;2.4;2;;;;;;;10.85;76.65625;948.5446;;;;
2019/05/30 23:07:15;;;;;;;3.1;2.2;;;;;;;10.84;76.71191;948.5492;;;;
2019/05/30 23:09:57;;;;;;;4.3;2.6;;;;;;;10.99;76.5791;948.5799;;;;
2019/05/30 23:12:44;;;;;;;5;2.7;;;;;;;11.05;76.63477;948.6136;;;;
2019/05/30 23:15:14;;;;;;;4.3;2.4;;;;;;;10.89;76.63965;948.5073;;;;
2019/05/30 23:17:56;;;;;;;3.7;2.2;;;;;;;10.68;77.42676;948.685;;;;
2019/05/30 23:20:29;;;;;;;4;2;;;;;;;10.53;77.59375;948.5693;;;;
2019/05/30 23:22:54;;;;;;;3.6;2.1;;;;;;;10.46;78.11523;948.6639;;;;
2019/05/30 23:25:35;;;;;;;2.6;2.2;;;;;;;10.13;79.19922;948.6032;;;;
2019/05/30 23:28:05;;;;;;;3.4;2.3;;;;;;;10.31;79.05957;948.5735;;;;
2019/05/30 23:30:30;;;;;;;3.4;2;;;;;;;10.38;78.67285;948.5803;;;;
2019/05/30 23:32:56;;;;;;;4.7;2.3;;;;;;;10.49;77.6543;948.5978;;;;
2019/05/30 23:35:25;;;;;;;3.5;2.5;;;;;;;10.54;77.83301;948.5433;;;;
2019/05/30 23:38:01;;;;;;;6;2.8;;;;;;;10.65;77.24902;948.5767;;;;
2019/05/30 23:40:34;;;;;;;5;3.1;;;;;;;10.53;77.94727;948.5647;;;;
2019/05/30 23:43:26;;;;;;;5.3;3.4;;;;;;;10.41;78.06152;948.5145;;;;
2019/05/30 23:45:46;;;;;;;6.3;3.2;;;;;;;10.28;78.74609;948.4694;;;;
2019/05/30 23:48:23;;;;;;;6;3.3;;;;;;;10.14;79.60059;948.4411;;;;
2019/05/30 23:50:52;;;;;;;5.2;3.2;;;;;;;10.15;79.7041;948.411;;;;
2019/05/30 23:53:19;;;;;;;4.5;3;;;;;;;10.26;79.37109;948.3987;;;;
2019/05/30 23:55:47;;;;;;;4.5;3;;;;;;;10.31;79.52734;948.408;;;;
2019/05/30 23:58:13;;;;;;;4.6;2.9;;;;;;;10.41;78.98633;948.4169;;;;
